Aérodrome :







RETROUVEZ-NOUS SUR...

 
LOGIN :

S'inscrire | Disclaimer

   EN    FR    IT 

 









Légende :    VFR   VFR Marginal   IFR   IFR Intensif   IFR Très Intensif
Visi : 
Plafond : 
>= 8 km
>= 3000ft
5 à 8 km
1000 à 3000 ft
1500m à 5 km
500 à 1000 ft
800 à 1500m
200 à 500 ft
< 800m
< 200 ft
Symboles :   Orages  Brouillard  Fortes neiges  Fortes précipitations  Vent > 20 kt






- Altitude de l'aérodrome : 122 ft
- Code IATA : YTQ


CYTQ - Tasiujaq

DERNIER METAR :
  • 161800Z 26018G24KT 6SM -SN DRSN SCT020 BKN072 M18/M22 A2927 RMK SC3AC4 SLP916

METARs EXPIRÉS :
  • 161702Z 26012G20KT 1 1/4SM -SN DRSN OVC022 M16/M20 A2925 RMK SC8 SLP912
  • 161600Z 24010KT 4SM -SN DRSN OVC030 M16/M20 A2925 RMK SC8 SLP912

TAF AMD TAF CYTQ
Valide du 16 à 17h jusqu'au 16 à 22h UTC


161727Z 1617/1622 26012G22KT 11/4SM -SN BLSN OVC020
TEMPO 1617/1619 P6SM -SN OVC030
FM161900 28015G25KT P6SM -SN BKN040 OVC240
TEMPO 1619/1622 2SM -SN OVC020
PROB30 1619/1622 1SM -SN BLSN RMK NXT FCST WILL BE ISSUED AT 171445Z



MET'MAP, la Météo Aéronautique d'un coup d'oeil ! - Copyright ORBIFLY Décembre 2007 - Disclaimer

ORBIFLY MET'MAP TEAM :

Programmation & Développement : Alexandra Zaïnal
Sur une idée originale de : Baudouin d'Aumeries
Assistance à la programmation : Marc-Olivier Méhu
Soutien technique & logistique : Manuel Goepfert

Contact : metmap@orbifly.com




SOURCES & CREDITS :

   NOAA